Mauricio Sierralta

Olheiro - Universidad Catolica
23 Jan 2028
Domingo
Processo

Personalidade

Adaptabilidade (11) Ambição (7) Controvérsia (14) Lealdade (11) Pressão (8) Profissionalismo (16) Espírito Esportivo (4) Temperamento (19)

Perfil

Estilo de Treinamento Democrático
Licença Nacional B
Determinação 7
Gestão de Pessoas 7
Motivação 9
Disciplina 11
Satisfação no Trabalho
100%
Fadiga
0%
Função Olheiro
Salário 61.2K p/s
Contrato 14.03.2029

Desempenho

Comportamento Bom
Eficácia do Treinamento
48%
Desenvolvimento do Jogador
25%
Prevenção de Lesões
50%
Implementação Tática
40%

Eventos Recentes

Recomendou um alvo de transferência agora
Recomendou um alvo de transferência agora
Recomendou um alvo de transferência agora
Participando de desenvolvimento profissional agora
Avaliou um jogador agora
Participando de desenvolvimento profissional agora
Avaliou um jogador agora
Participando de desenvolvimento profissional agora

Monitorando agora

327
Jogador Clube Status Habilidade Confiança Observado Última observação Último voto
Luciano Jachfe Nueva Chicago Ativo 116 / 121 40% 4 22.01.2028 -
Iván Arboleda Al Ahly Ativo 120 / 129 40% 4 22.01.2028 -
Lukáš Horníček Burnley Ativo 160 / 151 40% 1 22.01.2028 -
Diego Romero Universitario Ativo 127 / 127 40% 6 20.01.2028 -
Ezequiel Centurión River Plate Ativo 128 / 128 40% 6 20.01.2028 -
Tomás Durso Atlético Tucumán Ativo 125 / 123 40% 6 20.01.2028 -
Lucas Arcanjo Vitória Ativo 125 / 129 40% 7 19.01.2028 -
Caoimhin Kelleher Brentford Ativo 150 / 163 40% 3 19.01.2028 -
Carlos Miguel Palmeiras Ativo 131 / 130 40% 1 19.01.2028 -
Patrick Schulte Columbus Crew Ativo 122 / 131 40% 6 18.01.2028 -
Aaron Ramsdale Southampton Ativo 144 / 153 40% 1 18.01.2028 -
Emiliano González Almagro Ativo 124 / 115 40% 8 17.01.2028 -
James Pantemis Portland Timbers Ativo 126 / 123 40% 3 17.01.2028 -
Federico Losas Chacarita Juniors Ativo 116 / 120 40% 3 16.01.2028 -
Josh Keeley Luton Town Ativo 137 / 137 40% 1 16.01.2028 -
Nicolás Campisi Sportivo Luqueno Ativo 125 / 121 40% 2 15.01.2028 -
Alejandro Rodríguez Melgar Ativo 132 / 122 40% 6 13.01.2028 -
Santiago Silva Lech Ativo 141 / 132 40% 3 11.01.2028 -
Rodrigo Morínigo Debrecen Ativo 125 / 129 40% 1 11.01.2028 -
Angus Gunn San Jose Earthquakes Ativo 123 / 127 40% 5 10.01.2028 -
Jan Carlos Ángulo Deportes Tolima Ativo 119 / 125 40% 1 10.01.2028 -
Caio Alexandre Bahia Ativo 141 / 135 40% 1 10.01.2028 -
Williams Barlasina Fortaleza CEIF Ativo 121 / 121 40% 1 07.01.2028 -
Camilo Martinez Cortulua Ativo 130 / 121 40% 1 07.01.2028 -
Emiliano Álvarez Progreso Ativo 128 / 121 40% 1 07.01.2028 -
Hernán de la Fuente Instituto Ativo 124 / 118 40% 1 07.01.2028 -
Novak Mićović LA Galaxy Ativo 127 / 117 40% 6 05.01.2028 -
Adalberto Carrasquilla Junior Ativo 127 / 130 40% 2 03.01.2028 -
Santiago Murillo Alianza Petrolera Ativo 133 / 134 40% 2 03.01.2028 -
Cristopher Varela Deportivo La Guaira Ativo 130 / 128 40% 3 03.01.2028 -
Alexandro Bernabei Internacional Ativo 131 / 131 40% 1 03.01.2028 -
Manuel Roffo Hajduk Split Ativo 139 / 134 40% 8 31.12.2027 -
Mauro Silveira Junior Ativo 125 / 129 40% 4 31.12.2027 -
Diego Enríquez Sporting Cristal Ativo 140 / 135 40% 2 27.12.2027 -
Fabrizio Correa Juventud Ativo 117 / 122 40% 3 27.12.2027 -
Matheus Aluísio Palestino Ativo 85 / 91 72% 1 27.12.2027 Aprovar
Matías Tagliamonte Racing Club Ativo 118 / 118 40% 4 24.12.2027 -
Dayne St. Clair Inter Miami CF Ativo 131 / 130 40% 4 22.12.2027 -
Gabriel Brazão Santos Ativo 144 / 140 40% 3 21.12.2027 -
Javier Altamirano Universidad de Chile Perdido 125 / 125 72% 1 20.12.2027 Aprovar
Drake Callender Minnesota United FC Ativo 120 / 121 40% 2 18.12.2027 -
Juan Moreno La Luz Ativo 114 / 116 40% 1 16.12.2027 -
Hugo Souza Corinthians Ativo 138 / 138 40% 1 16.12.2027 -
Raúl Rangel Braga Ativo 144 / 148 40% 1 14.12.2027 -
Gabriel Batista Botafogo Ativo 128 / 127 40% 2 08.12.2027 -
John Pulskamp Sporting Kansas City Ativo 120 / 116 40% 1 08.12.2027 -
Jesús Owono Andorra Ativo 112 / 114 40% 1 06.12.2027 -
Lautaro Maldonado Instituto Ativo 115 / 120 40% 2 04.12.2027 -
Eduardo Lozano Botafogo Ativo 147 / 145 40% 4 28.11.2027 -
Louis Munteanu Charlotte Football Club Ativo 128 / 132 40% 7 28.11.2027 -
Bruno Leyes Godoy Cruz Ativo 130 / 124 40% 1 28.11.2027 -
Dejan Joveljić Seattle Sounders Ativo 134 / 133 40% 9 23.11.2027 -
Arthur Cabral Botafogo Ativo 126 / 128 40% 7 23.11.2027 -
Mateo Cassierra Atlético Mineiro Ativo 138 / 137 40% 3 23.11.2027 -
Jesus Ferreira Seattle Sounders Ativo 133 / 131 40% 8 22.11.2027 -
Wessam Abou Ali Columbus Crew Ativo 137 / 134 40% 5 22.11.2027 -
Facundo Colidio Vasco da Gama Ativo 133 / 134 40% 5 21.11.2027 -
Morgan Whittaker Bristol Rovers Ativo 138 / 135 40% 3 21.11.2027 -
Pep Biel Charlotte Football Club Ativo 131 / 126 40% 6 20.11.2027 -
Martín Ojeda Orlando City Ativo 137 / 134 40% 15 18.11.2027 -
Liel Abada Inter Miami CF Ativo 141 / 135 40% 6 17.11.2027 -
Ignacio Vázquez Platense Ativo 130 / 131 40% 3 16.11.2027 -
Kasper Høgh Huracán Ativo 141 / 127 40% 7 16.11.2027 -
Santiago Salcedo Cruzeiro Ativo 150 / 150 40% 2 16.11.2027 -
Alexander Aravena Portland Timbers Ativo 136 / 132 40% 2 16.11.2027 -
Felipe Peña Biafore Lanús Ativo 133 / 132 40% 1 16.11.2027 -
José Manuel López Palmeiras Ativo 133 / 140 40% 6 14.11.2027 -
Jherson Mosquera Newell's Old Boys Ativo 129 / 123 40% 2 14.11.2027 -
Rico Henry River Plate Ativo 136 / 147 40% 2 14.11.2027 -
Nazareno Colombo Racing Club Ativo 123 / 132 40% 1 14.11.2027 -
Alejo Veliz Bahia Ativo 135 / 141 40% 9 13.11.2027 -
Kévin Denkey FC Cincinnati Ativo 136 / 133 40% 9 11.11.2027 -
Germán Berterame Inter Miami CF Ativo 136 / 133 40% 10 10.11.2027 -
Juan Brunetta Chicago Fire Negociando 142 / 141 40% 10 09.11.2027 -
Luis Suárez Sporting CP Ativo 160 / 161 40% 1 09.11.2027 -
Petar Musa FC Dallas Ativo 143 / 137 40% 9 08.11.2027 -
Marco Di Cesare Racing Club Ativo 131 / 125 40% 2 03.11.2027 -
Evanilson Southampton Ativo 162 / 153 40% 4 03.11.2027 -
Rui Modesto Vancouver Whitecaps Ativo 125 / 129 40% 3 03.11.2027 -
Aníbal Moreno River Plate Ativo 128 / 129 40% 1 03.11.2027 -
Timo Werner San Jose Earthquakes Ativo 132 / 130 40% 7 31.10.2027 -
Sergio Reguilón Inter Miami CF Ativo 140 / 139 40% 3 29.10.2027 -
Santiago González Tigre Ativo 130 / 124 40% 3 29.10.2027 -
Emanuel Mammana Vélez Ativo 137 / 129 40% 4 27.10.2027 -
Juan Carlos Portillo River Plate Ativo 135 / 126 40% 2 27.10.2027 -
Matías Galarza Talleres Ativo 126 / 123 40% 1 27.10.2027 -
Aarón Quiros Vélez Ativo 129 / 123 40% 3 26.10.2027 -
Zito Luvumbo Cagliari Ativo 131 / 130 40% 3 22.10.2027 -
Talles Magno New York City Ativo 139 / 131 40% 2 16.10.2027 -
Ismaïla Sarr Crystal Palace Ativo 163 / 160 40% 3 15.10.2027 -
Lucas Villalba Botafogo Ativo 128 / 122 40% 1 15.10.2027 -
Malte Amundsen Columbus Crew Ativo 125 / 118 40% 2 13.10.2027 -
Joaquín García Vélez Ativo 125 / 124 40% 1 13.10.2027 -
Christian Kouamé Atlético Mineiro Ativo 136 / 134 40% 3 09.10.2027 -
Emanuel Coronel Rosario Central Ativo 125 / 131 40% 2 07.10.2027 -
Carlos Fernández Oviedo Ativo 122 / 127 40% 1 03.10.2027 -
Mateo Mendoza Godoy Cruz Ativo 129 / 133 40% 1 03.10.2027 -
José Luis Caicedo Barranquilla Ativo 137 / 135 40% 1 02.10.2027 -
Manfred Ugalde Spartak Moscow Ativo 141 / 129 40% 2 29.09.2027 -
Youssef En-Nesyri Padideh Ativo 147 / 151 40% 1 29.09.2027 -
Loïc Williams Colorado Rapids Ativo 126 / 126 40% 1 26.09.2027 -
Mateo Joseph Leeds United Ativo 129 / 145 40% 2 18.09.2027 -
Damián Fernández Defensa y Justicia Ativo 128 / 127 40% 1 18.09.2027 -
Alexey Miranchuk Atlanta United FC Ativo 141 / 143 40% 6 12.09.2027 -
Dango Ouattara Leicester City Ativo 151 / 147 40% 1 12.09.2027 -
Vasil Kušej Slavia Prague Ativo 138 / 133 40% 1 11.09.2027 -
Gastón Benedetti Estudiantes Ativo 133 / 121 40% 1 11.09.2027 -
Rodrigo Castillo Fluminense Ativo 131 / 130 40% 2 09.09.2027 -
Germán Valera Elche Ativo 143 / 135 40% 5 31.08.2027 -
Miguel Merentiel Köln Ativo 139 / 141 40% 1 30.08.2027 -
João Félix Dinamo Moscow Ativo 153 / 150 40% 1 22.08.2027 -
Mehdi Ghayedi Al Nasr Ativo 124 / 137 40% 2 21.08.2027 -
Ozziel Herrera Barcelona Ativo 127 / 131 40% 1 21.08.2027 -
Luca Langoni Columbus Crew Ativo 125 / 128 40% 1 19.08.2027 -
Assane Diao Como Ativo 160 / 155 40% 2 13.08.2027 -
Amin Sarr Hellas Verona Ativo 123 / 128 40% 1 13.08.2027 -
Stav Toriel Hapoel Tel Aviv Ativo 134 / 139 40% 1 13.08.2027 -
Che Adams Torino Ativo 153 / 142 40% 8 12.08.2027 -
M'Bala Nzola Cagliari Ativo 127 / 127 40% 1 12.08.2027 -
Zakaria Aboukhlal Torino Ativo 141 / 133 40% 3 11.08.2027 -
Zian Flemming Ipswich Town Ativo 132 / 139 40% 8 09.08.2027 -
Wilson Isidor Sunderland Ativo 143 / 133 40% 6 09.08.2027 -
Eddie Nketiah Crystal Palace Ativo 141 / 146 40% 10 08.08.2027 -
Aune Heggebø West Bromwich Albion Ativo 125 / 131 40% 2 08.08.2027 -
Taty Castellanos West Ham United Ativo 147 / 144 40% 1 05.08.2027 -
Oli McBurnie Hull City Ativo 142 / 141 40% 10 04.08.2027 -
Yousef Salech Cardiff City Ativo 141 / 121 40% 3 04.08.2027 -
Mateo Pellegrino Fiorentina Ativo 141 / 145 40% 11 02.08.2027 -
Jørgen Strand Larsen Brighton Ativo 143 / 146 40% 7 02.08.2027 -
Lukas Nmecha Leeds United Ativo 140 / 130 40% 3 01.08.2027 -
Callum O'Hare Sheffield United Ativo 127 / 137 40% 7 30.07.2027 -
Willem Geubbels Lecce Ativo 127 / 125 40% 1 30.07.2027 -
Andrea Pinamonti Lazio Ativo 136 / 134 40% 7 29.07.2027 -
Lorenzo Colombo Genoa Ativo 147 / 143 40% 12 28.07.2027 -
Brian Brobbey Sunderland Ativo 149 / 141 40% 4 28.07.2027 -
Igor Jesus Nottingham Forest Ativo 150 / 143 40% 6 25.07.2027 -
Nicolò Zaniolo Udinese Ativo 149 / 153 40% 6 24.07.2027 -
Rodrigo Muniz Fulham Ativo 150 / 136 40% 5 21.07.2027 -
Tommy Conway Middlesbrough Ativo 136 / 127 40% 1 19.07.2027 -
Mathys Tel Tottenham Ativo 146 / 151 40% 4 17.07.2027 -
Tyrese Campbell Sheffield United Ativo 127 / 133 40% 4 15.07.2027 -
Steven Bergwijn Al-Ittihad Ativo 160 / 152 40% 3 09.07.2027 -
Noah Okafor Leeds United Ativo 143 / 143 40% 5 05.07.2027 -
Giacomo Raspadori Atalanta Ativo 158 / 141 40% 2 03.07.2027 -
Joe Gelhardt Hull City Ativo 134 / 127 40% 7 01.07.2027 -
Patrick Cutrone Monza Ativo 142 / 126 40% 12 24.06.2027 -
Julián Quiñones Al-Qadisiyah Ativo 142 / 155 40% 3 16.06.2027 -
Mohamed-Ali Cho Hull City Ativo 142 / 142 40% 6 09.06.2027 -
Chemsdine Talbi Sunderland Ativo 149 / 153 40% 2 01.06.2027 -
Marvin Keller Chelsea Ativo 136 / 137 67% 1 01.06.2027 Aprovar
Stanislav Agkatsev Brentford Ativo 132 / 133 66% 1 01.06.2027 Aprovar
Ryoya Morishita Blackburn Rovers Ativo 134 / 127 40% 1 31.05.2027 -
Ilyas Ansah Hull City Ativo 123 / 131 40% 4 29.05.2027 -
Solly March Brighton Ativo 144 / 148 40% 2 26.05.2027 -
Harry Wilson Leeds United Ativo 153 / 151 40% 1 26.05.2027 -
Thiago Brentford Ativo 142 / 151 40% 1 25.05.2027 -
Keinan Davis Udinese Ativo 136 / 139 40% 2 19.05.2027 -
Carlos Vicente Birmingham Ativo 144 / 150 40% 1 18.05.2027 -
Manor Solomon West Ham United Ativo 147 / 141 40% 2 16.05.2027 -
Milan van Ewijk Coventry City Ativo 139 / 123 40% 1 16.05.2027 -
Max Johnston Derby County Ativo 137 / 136 40% 2 11.05.2027 -
Olivier Boscagli Brighton Ativo 152 / 144 40% 2 10.05.2027 -
Xaver Schlager Nottingham Forest Ativo 159 / 144 40% 2 10.05.2027 -
Adrien Truffert Bournemouth Ativo 150 / 153 40% 2 10.05.2027 -
Kevin Schade Chelsea Ativo 155 / 146 40% 1 06.05.2027 -
Marcus Edwards Burnley Ativo 142 / 129 40% 2 01.05.2027 -
Florentino Luís Ipswich Town Ativo 149 / 142 40% 2 29.04.2027 -
Azor Matusiwa Ipswich Town Ativo 129 / 142 40% 1 29.04.2027 -
Ousmane Diomande Nottingham Forest Ativo 155 / 161 40% 1 29.04.2027 -
Álex Berenguer Lokomotiv Moscow Ativo 153 / 156 40% 10 25.04.2027 -
Marcel Ruiz Crystal Palace Ativo 144 / 149 40% 3 25.04.2027 -
Fábio Carvalho Brentford Ativo 136 / 144 40% 2 25.04.2027 -
Jason Knight Bristol City Ativo 127 / 125 40% 1 24.04.2027 -
Matt O'Riley Brighton Ativo 147 / 137 40% 1 22.04.2027 -
Pablo Felipe West Ham United Ativo 125 / 144 40% 1 19.04.2027 -
Harry Clarke Preston Ativo 123 / 126 40% 2 17.04.2027 -
Aidan Morris Middlesbrough Ativo 134 / 129 40% 1 17.04.2027 -
Pedro Porro Tottenham Ativo 157 / 154 40% 3 14.04.2027 -
Yehor Yarmoliuk Brentford Ativo 152 / 149 40% 1 14.04.2027 -
Juanlu Bournemouth Ativo 141 / 147 40% 1 14.04.2027 -
Kwadwo Baah Watford Ativo 131 / 129 40% 1 09.04.2027 -
Andre Brooks Sheffield United Ativo 133 / 122 40% 1 06.04.2027 -
Derensili Sanches Fernandes Huddersfield Town Ativo 128 / 116 40% 1 02.04.2027 -
Isaiah Jones Luton Town Ativo 116 / 116 40% 1 27.03.2027 -
Gonzalo Fulham Ativo 145 / 144 40% 1 27.03.2027 -
Nordi Mukiele Sunderland Ativo 147 / 142 40% 2 25.03.2027 -
Hwang Hee-Chan Wolverhampton Ativo 125 / 129 40% 1 22.03.2027 -
Alex Scott Bournemouth Ativo 142 / 153 40% 2 15.03.2027 -
André-Franck Zambo Anguissa Napoli Ativo 170 / 159 40% 2 13.03.2027 -
Tariq Lamptey Queens Park Rangers Ativo 136 / 136 40% 1 13.03.2027 -
Jason Al-Fayha Ativo 132 / 121 40% 2 10.03.2027 -
Jacob Greaves Ipswich Town Ativo 133 / 137 40% 3 10.03.2027 -
Jake O'Brien Everton Ativo 153 / 154 40% 2 10.03.2027 -
Hidemasa Morita Hull City Ativo 135 / 140 40% 4 08.03.2027 -
Issa Kaboré Wrexham Ativo 123 / 132 40% 1 05.03.2027 -
Mamadou Sylla Al-Riyadh Ativo 133 / 131 40% 1 04.03.2027 -
Majid Jahanbakhsh Rah Ahan Ativo 122 / 137 40% 5 26.02.2027 -
Bernard Tekpetey Ludogorets Ativo 134 / 117 40% 5 26.02.2027 -
Dennis Cirkin Queens Park Rangers Ativo 135 / 119 40% 3 23.02.2027 -
James Garner Everton Ativo 142 / 156 40% 1 23.02.2027 -
Anton Stach Leeds United Ativo 150 / 146 40% 2 22.02.2027 -
Jarrad Branthwaite Everton Ativo 147 / 152 40% 1 22.02.2027 -
Oliver Skipp Leicester City Ativo 141 / 134 40% 1 22.02.2027 -
John Mercado Sparta Prague Ativo 133 / 120 40% 1 19.02.2027 -
Noah Sadiki Sunderland Ativo 142 / 143 40% 1 16.02.2027 -
Quinten Timber Crystal Palace Ativo 161 / 147 40% 1 12.02.2027 -
Nobel Mendy Hull City Ativo 128 / 141 40% 1 12.02.2027 -
Ryan Sessegnon Fulham Ativo 149 / 141 40% 1 11.02.2027 -
Michael Baidoo Plymouth Argyle Ativo 133 / 125 40% 1 09.02.2027 -
Mehdi Dorval Catanzaro Ativo 122 / 127 40% 1 09.02.2027 -
Amar Memić Viktoria Plzen Ativo 140 / 120 40% 2 05.02.2027 -
Ferland Mendy Real Madrid Ativo 145 / 153 40% 3 05.02.2027 -
Matthew Targett Hull City Ativo 137 / 136 40% 2 04.02.2027 -
Jimmy Dunne Queens Park Rangers Ativo 132 / 118 40% 1 04.02.2027 -
Kenny Tete Fulham Ativo 142 / 143 40% 2 02.02.2027 -
Marquinhos Spartak Moscow Ativo 139 / 128 40% 1 02.02.2027 -
Will Hughes Bloemfontein Celtic Ativo 133 / 133 40% 3 01.02.2027 -
João Cancelo Spartak Moscow Ativo 160 / 152 40% 3 31.01.2027 -
Tomáš Souček West Ham United Ativo 133 / 132 40% 2 28.01.2027 -
Teboho Mokoena Mamelodi Sundowns Ativo 144 / 142 40% 5 27.01.2027 -
Paik Seung-Ho Birmingham Ativo 119 / 117 40% 2 27.01.2027 -
Wendel Zenit Ativo 149 / 140 40% 1 18.01.2027 -
Adam Randell Bristol City Ativo 138 / 126 40% 1 18.01.2027 -
Petar Stanić Ludogorets Ativo 147 / 129 40% 1 18.01.2027 -
Óscar Valentín FC Copenhagen Ativo 138 / 133 40% 2 12.01.2027 -
Lloyd Jones Charlton Athletic Ativo 139 / 138 40% 1 10.01.2027 -
Juan Bisanz Huracán Ativo 130 / 121 40% 1 09.01.2027 -
Leandro Paredes Boca Juniors Ativo 144 / 147 40% 1 09.01.2027 -
Peter Federico Gornik Zabrze Ativo 125 / 118 40% 1 08.01.2027 -
Matt Clarke Derby County Ativo 133 / 123 40% 1 08.01.2027 -
Lucas Carrizo Newell's Old Boys Ativo 130 / 120 40% 1 02.01.2027 -
Lukáš Červ Viktoria Plzen Ativo 124 / 122 40% 1 02.01.2027 -
Gedson Fernandes Spartak Moscow Ativo 142 / 127 40% 1 01.01.2027 -
Santiago Ascacíbar Boca Juniors Ativo 135 / 135 40% 1 29.12.2026 -
Santiago Montiel Independiente Ativo 132 / 131 40% 1 25.11.2026 -
Alexis Cuello San Lorenzo Ativo 120 / 127 40% 1 25.11.2026 -
Rick Talleres Ativo 120 / 121 40% 1 24.11.2026 -
Christian Walton Ipswich Town Ativo 126 / 139 40% 1 23.11.2026 -
Fran Vieites Walsall Ativo 110 / 111 40% 2 19.11.2026 -
Michael Cooper Sheffield United Ativo 129 / 125 40% 1 19.11.2026 -
Óscar Al-Diriyah Ativo 119 / 116 40% 1 18.11.2026 -
Andreas Hansen FC Nordsjaelland Ativo 112 / 126 40% 1 17.11.2026 -
Alexander Nübel Besiktas Ativo 149 / 151 40% 3 15.11.2026 -
Grégoire Coudert Burnley Ativo 135 / 137 40% 1 15.11.2026 -
Lucas Cepeda Elche Ativo 130 / 119 40% 2 11.11.2026 -
Jackson Muleka Konyaspor Ativo 125 / 131 40% 1 11.11.2026 -
Anthony Patterson Wrexham Ativo 139 / 135 40% 1 10.11.2026 -
Radek Vítek Middlesbrough Ativo 132 / 131 40% 1 09.11.2026 -
Nikita Haikin Bodo/Glimt Ativo 131 / 131 40% 1 09.11.2026 -
Tomáš Rigo Stoke City Ativo 132 / 120 40% 1 08.11.2026 -
Wes Burns Leicester City Ativo 129 / 129 40% 1 05.11.2026 -
Rustam Yatimov Rostov Ativo 109 / 115 40% 1 31.10.2026 -
Alexis Alégué Zbrojovka Brno Ativo 113 / 125 40% 1 30.10.2026 -
Ľubomír Belko Viking Ativo 125 / 135 40% 1 29.10.2026 -
Miles Robinson FC Cincinnati Ativo 142 / 136 40% 1 29.10.2026 -
Uğurcan Çakır Galatasaray Ativo 146 / 146 40% 2 27.10.2026 -
Håkon Evjen Bodo/Glimt Ativo 129 / 121 40% 2 25.10.2026 -
Sota Kitano Red Bull Salzburg Ativo 136 / 120 40% 1 25.10.2026 -
Iván Angulo Orlando City Ativo 127 / 129 40% 2 24.10.2026 -
Bongani Zungu Ajax Cape Town Ativo 126 / 135 40% 1 24.10.2026 -
Kazuki Fujita Avispa Fukuoka Ativo 117 / 115 40% 1 24.10.2026 -
Andrés Herrera Columbus Crew Ativo 121 / 117 40% 1 24.10.2026 -
Matt Miazga FC Cincinnati Ativo 123 / 122 40% 1 24.10.2026 -
Luke Shaw Lokomotiv Moscow Ativo 150 / 153 40% 1 24.10.2026 -
Keisuke Osako Sanfrecce Hiroshima Ativo 145 / 141 40% 3 21.10.2026 -
Svend Brodersen Kawasaki Frontale Ativo 127 / 113 40% 1 19.10.2026 -
Nicolás Romero Minnesota United FC Ativo 128 / 126 40% 1 18.10.2026 -
Franco Cristaldo Talleres Ativo 129 / 129 40% 3 16.10.2026 -
Jack Harrison New England Revolution Ativo 137 / 126 40% 3 16.10.2026 -
Ole-Didrik Blomberg Bodo/Glimt Ativo 118 / 131 40% 1 16.10.2026 -
Facundo Mura Inter Miami CF Ativo 119 / 123 40% 1 14.10.2026 -
Matouš Trmal Teplice Ativo 108 / 109 40% 1 12.10.2026 -
Pedrinho Shakhtar Ativo 134 / 137 40% 2 11.10.2026 -
Jens Petter Hauge Bodo/Glimt Ativo 140 / 140 40% 1 11.10.2026 -
Jordan Lotomba Bloemfontein Celtic Ativo 118 / 120 40% 1 09.10.2026 -
Denis Adamov Zenit Ativo 127 / 133 40% 1 02.10.2026 -
Hannes Wolf New York City Ativo 132 / 121 40% 1 01.10.2026 -
Jordan Morris Seattle Sounders Ativo 132 / 133 40% 1 01.10.2026 -
Marcel Hartel St. Louis CITY SC Ativo 129 / 123 40% 1 01.10.2026 -
Marcelo Allende Mamelodi Sundowns Ativo 118 / 135 40% 1 26.09.2026 -
Francisco González Metilli Belgrano Ativo 126 / 127 40% 1 26.09.2026 -
Cristian Espinoza Nashville SC Ativo 126 / 136 40% 2 25.09.2026 -
Marco Pašalić Orlando City Ativo 127 / 125 40% 3 25.09.2026 -
Tomoki Hayakawa Kashima Antlers Ativo 138 / 135 40% 1 24.09.2026 -
Lucas Bergström Union Berlin Ativo 109 / 120 40% 1 24.09.2026 -
Antony Portland Timbers Ativo 138 / 128 40% 1 24.09.2026 -
Joseph Paintsil LA Galaxy Ativo 132 / 135 40% 1 24.09.2026 -
Morgan Guilavogui Real Salt Lake Ativo 120 / 128 40% 1 23.09.2026 -
Sipho Chaine Orlando Pirates Ativo 119 / 123 40% 1 21.09.2026 -
Telasco Segovia Inter Miami CF Ativo 128 / 126 40% 1 20.09.2026 -
Diego Luna Real Salt Lake Ativo 120 / 130 40% 1 20.09.2026 -
Anders Dreyer San Diego Football Club Ativo 129 / 128 40% 3 17.09.2026 -
Rubén Blanco Yokohama F. Marinos Ativo 135 / 136 40% 1 16.09.2026 -
Alexandr Maximenko Spartak Moscow Ativo 123 / 124 40% 1 15.09.2026 -
Fiete Arp OB Ativo 118 / 118 40% 1 13.09.2026 -
Manu Morlanes Mallorca Ativo 144 / 132 40% 2 11.09.2026 -
André Franco Chicago Fire Ativo 117 / 123 40% 1 11.09.2026 -
David Brekalo Orlando City Ativo 133 / 131 40% 2 08.09.2026 -
Elías Rafn Ólafsson FC Midtjylland Ativo 129 / 128 40% 1 06.09.2026 -
Tomás Galván River Plate Ativo 127 / 130 40% 2 04.09.2026 -
Roman Celentano FC Cincinnati Ativo 114 / 121 40% 1 04.09.2026 -
Obinna Nwobodo FC Cincinnati Ativo 132 / 125 40% 1 03.09.2026 -
Jonathan Bamba Chicago Fire Ativo 142 / 138 40% 1 31.08.2026 -
Cristian Roldan Seattle Sounders Ativo 127 / 131 40% 1 26.08.2026 -
Paxten Aaronson Colorado Rapids Ativo 135 / 134 40% 1 26.08.2026 -
Patrick Pentz Brondby Ativo 115 / 135 40% 1 24.08.2026 -
Zack Steffen Colorado Rapids Ativo 122 / 129 40% 1 24.08.2026 -
Allan Saint-Maximin Charlotte Football Club Ativo 145 / 141 40% 1 23.08.2026 -
Matevž Vidovšek Olimpija Ljubljana Ativo 111 / 114 40% 1 21.08.2026 -
Adrian Šemper Al-Fateh Ativo 114 / 135 40% 1 21.08.2026 -
Anton Salétros Chicago Fire Ativo 134 / 127 40% 1 20.08.2026 -
Joao Ortiz Portland Timbers Ativo 126 / 131 40% 1 18.08.2026 -
Eduard Atuesta Orlando City Ativo 119 / 117 40% 1 18.08.2026 -
Japhet Sery Larsen Philadelphia Union Ativo 122 / 121 40% 1 18.08.2026 -
Keaton Parks New York City Ativo 127 / 130 40% 1 18.08.2026 -
Juan Escobar Melgar Ativo 125 / 125 40% 2 15.08.2026 -
Paulo Díaz Atlanta United FC Ativo 129 / 136 40% 1 15.08.2026 -
Steven Alzate Atlanta United FC Ativo 121 / 120 40% 1 15.08.2026 -
Ignacio Aliseda Cerro Porteno Ativo 118 / 121 40% 1 13.08.2026 -
Sergi Palencia Los Angeles Football Club Ativo 121 / 128 40% 2 09.08.2026 -
Lucas Souto Defensa y Justicia Ativo 117 / 126 40% 1 09.08.2026 -
César Inga Universitario Ativo 126 / 122 40% 1 09.08.2026 -
Djordje Mihailović Toronto FC Ativo 137 / 124 40% 1 09.08.2026 -
Myrto Uzuni Austin FC Ativo 124 / 131 40% 2 08.08.2026 -
Mojmír Chytil Slavia Prague Ativo 135 / 141 40% 1 05.08.2026 -
Lucas Sanabria LA Galaxy Ativo 131 / 125 40% 1 04.08.2026 -
Rubén Duarte Pumas UNAM Ativo 126 / 126 40% 2 02.08.2026 -